Time;durP1;ratioP1;P1;durP2;ratioP2;P2;SDS_P1;SDS_P2;PMS_P1;PMS_P2;Temp;Humidity;BMP_temperature;BMP_pressure;BME280_temperature;BME280_humidity;BME280_pressure;Samples;Min_cycle;Max_cycle;Signal;HPM_P1;HPM_P2
2022/07/22 00:00:11;;;;;;;8.38;5.50;;;17.30;98.10;;;;;;20972472;28;20028;-58
2022/07/22 00:10:13;;;;;;;8.98;4.63;;;17.30;98.30;;;;;;20971913;28;20040;-60
2022/07/22 00:20:16;;;;;;;7.13;4.15;;;17.20;98.60;;;;;;20970366;28;20041;-60
2022/07/22 00:30:18;;;;;;;8.40;4.78;;;17.10;98.60;;;;;;20952819;28;20086;-56
2022/07/22 00:40:21;;;;;;;4.50;4.10;;;17.00;98.90;;;;;;20968566;28;20036;-57
2022/07/22 00:50:23;;;;;;;7.20;4.30;;;16.90;99.20;;;;;;20968090;28;20032;-56
2022/07/22 01:00:26;;;;;;;4.55;3.90;;;16.80;99.50;;;;;;20984183;28;20515;-57
2022/07/22 01:10:28;;;;;;;6.25;3.83;;;16.70;99.10;;;;;;20950441;28;20114;-57
2022/07/22 01:20:31;;;;;;;7.55;3.72;;;16.70;98.80;;;;;;20966772;28;20480;-57
2022/07/22 01:30:33;;;;;;;10.75;3.75;;;16.70;98.50;;;;;;20966579;28;20062;-57
2022/07/22 01:40:36;;;;;;;4.85;3.70;;;16.60;98.10;;;;;;20951046;28;20041;-57
2022/07/22 01:50:40;;;;;;;4.43;3.65;;;16.60;98.40;;;;;;20965720;28;20033;-56
2022/07/22 02:00:43;;;;;;;8.50;3.50;;;16.60;98.10;;;;;;20981091;28;20036;-57
2022/07/22 02:10:45;;;;;;;6.03;3.38;;;16.60;97.30;;;;;;20963590;28;20505;-60
2022/07/22 02:20:49;;;;;;;6.00;4.10;;;16.50;96.80;;;;;;20979584;28;20041;-56
2022/07/22 02:30:52;;;;;;;7.40;4.40;;;16.70;96.90;;;;;;20962365;28;20086;-60
2022/07/22 02:40:54;;;;;;;6.07;3.80;;;16.50;97.40;;;;;;20961559;28;20362;-56
2022/07/22 02:50:57;;;;;;;4.05;3.65;;;16.50;96.60;;;;;;20960974;28;20515;-60
2022/07/22 03:01:03;;;;;;;5.30;3.15;;;16.50;96.40;;;;;;20959773;28;20037;-56
2022/07/22 03:11:15;;;;;;;7.88;3.05;;;16.40;95.60;;;;;;20958805;28;20090;-60
2022/07/22 03:21:18;;;;;;;3.72;3.00;;;16.30;95.10;;;;;;20958337;28;20058;-57
2022/07/22 03:31:21;;;;;;;4.22;2.97;;;16.40;94.90;;;;;;20957374;28;20044;-57
2022/07/22 03:41:25;;;;;;;7.50;3.10;;;16.40;94.80;;;;;;20957026;28;20097;-57
2022/07/22 03:51:27;;;;;;;6.00;3.03;;;16.30;94.70;;;;;;20955936;28;20036;-57
2022/07/22 04:01:31;;;;;;;7.78;3.00;;;16.40;94.40;;;;;;20954951;28;20063;-56
2022/07/22 04:11:34;;;;;;;3.40;2.90;;;16.40;94.00;;;;;;20954206;28;20098;-61
2022/07/22 04:21:38;;;;;;;6.13;2.55;;;16.30;93.60;;;;;;20953542;28;20045;-57
2022/07/22 04:31:44;;;;;;;4.30;2.45;;;16.60;92.50;;;;;;20952728;28;20036;-57
2022/07/22 04:41:50;;;;;;;4.47;2.78;;;16.70;92.10;;;;;;20951794;28;20033;-56
2022/07/22 04:51:54;;;;;;;7.93;3.58;;;16.60;91.80;;;;;;20967825;28;20101;-57
2022/07/22 05:02:11;;;;;;;8.43;3.92;;;16.80;91.80;;;;;;20967436;28;20037;-57
2022/07/22 05:12:14;;;;;;;4.70;2.42;;;17.10;91.80;;;;;;20950134;28;20041;-60
2022/07/22 05:22:17;;;;;;;6.85;4.15;;;17.20;91.10;;;;;;20949143;28;20036;-57
2022/07/22 05:32:19;;;;;;;7.13;3.90;;;17.30;91.30;;;;;;20949860;28;20486;-56
2022/07/22 05:42:24;;;;;;;8.57;2.85;;;17.60;91.10;;;;;;20949217;28;20033;-57
2022/07/22 05:52:26;;;;;;;3.70;2.42;;;17.80;90.60;;;;;;20965417;28;20040;-60
2022/07/22 06:02:29;;;;;;;3.78;2.42;;;18.10;90.70;;;;;;20964910;28;20033;-57
2022/07/22 06:12:31;;;;;;;3.55;2.42;;;18.50;90.70;;;;;;20910556;28;20106;-57
2022/07/22 06:22:34;;;;;;;3.10;2.58;;;19.00;90.00;;;;;;20884726;28;20106;-58
2022/07/22 06:32:37;;;;;;;3.25;2.30;;;20.10;89.80;;;;;;20875158;28;20100;-59
2022/07/22 06:42:40;;;;;;;29.77;4.22;;;24.70;81.50;;;;;;20879247;28;20400;-59
2022/07/22 06:53:02;;;;;;;4.75;2.83;;;27.60;72.70;;;;;;20894449;28;20063;-60
2022/07/22 07:03:06;;;;;;;4.20;3.80;;;30.40;67.40;;;;;;20909026;28;20082;-60
2022/07/22 07:13:09;;;;;;;4.97;4.33;;;32.60;65.60;;;;;;20989870;28;20070;-60
2022/07/22 07:23:18;;;;;;;6.43;4.60;;;33.80;60.30;;;;;;21058400;28;20608;-58
2022/07/22 07:33:22;;;;;;;4.28;3.88;;;34.40;58.00;;;;;;21041129;28;20369;-58
2022/07/22 07:43:27;;;;;;;5.40;4.50;;;34.00;56.10;;;;;;21039130;28;20040;-58
2022/07/22 07:53:29;;;;;;;5.03;4.57;;;34.20;55.60;;;;;;21055980;28;20093;-58
2022/07/22 08:03:32;;;;;;;5.07;4.57;;;33.30;56.70;;;;;;20962634;28;20437;-57
2022/07/22 08:13:35;;;;;;;5.70;4.30;;;33.20;57.20;;;;;;20954200;28;20460;-58
2022/07/22 08:23:45;;;;;;;5.32;4.50;;;33.10;57.50;;;;;;20954338;28;20036;-59
2022/07/22 08:33:49;;;;;;;5.00;4.55;;;33.60;56.90;;;;;;20949977;28;20571;-58
2022/07/22 08:43:52;;;;;;;5.70;5.18;;;33.40;57.40;;;;;;20968434;28;20044;-58
2022/07/22 08:53:56;;;;;;;6.35;4.90;;;33.80;55.90;;;;;;20967590;28;20090;-58
2022/07/22 09:03:58;;;;;;;6.93;5.20;;;33.80;56.20;;;;;;20951187;28;20040;-58
2022/07/22 09:14:06;;;;;;;9.95;5.40;;;33.90;55.90;;;;;;20950477;28;20045;-58
2022/07/22 09:24:35;;;;;;;7.38;6.72;;;34.10;56.00;;;;;;20918340;28;20052;-57
2022/07/22 09:35:11;;;;;;;10.05;6.70;;;34.10;57.00;;;;;;20711079;28;20061;-58
2022/07/22 09:45:25;;;;;;;8.43;6.53;;;33.80;57.30;;;;;;20710820;28;20092;-57
2022/07/22 09:55:29;;;;;;;7.22;6.53;;;33.70;58.20;;;;;;20719249;28;20188;-58
2022/07/22 10:05:36;;;;;;;5.90;5.30;;;34.00;57.00;;;;;;20861937;28;20045;-58
2022/07/22 10:15:39;;;;;;;10.55;5.60;;;33.90;58.50;;;;;;20964285;28;20070;-58
2022/07/22 10:25:51;;;;;;;7.05;5.43;;;34.30;56.80;;;;;;20962591;28;20067;-58
2022/07/22 10:35:57;;;;;;;7.15;5.80;;;34.70;55.80;;;;;;20961783;28;20029;-58
2022/07/22 10:46:06;;;;;;;7.85;5.05;;;34.60;55.10;;;;;;20960869;28;20497;-58
2022/07/22 10:56:29;;;;;;;8.57;5.97;;;34.50;54.70;;;;;;20974804;28;20036;-58
2022/07/22 11:06:31;;;;;;;12.25;6.25;;;34.60;54.80;;;;;;21059782;28;20028;-58
2022/07/22 11:16:34;;;;;;;8.27;7.28;;;34.90;55.50;;;;;;21058894;28;20043;-57
2022/07/22 11:26:48;;;;;;;10.50;7.82;;;34.90;55.90;;;;;;21058237;28;20093;-57
2022/07/22 11:36:53;;;;;;;10.10;8.25;;;35.00;55.90;;;;;;21057412;28;20097;-58
2022/07/22 11:46:58;;;;;;;11.67;6.83;;;35.50;56.50;;;;;;21056608;28;20087;-57
2022/07/22 11:57:01;;;;;;;;;;;35.20;55.80;;;;;;21034632;28;20036;-58
2022/07/22 12:07:04;;;;;;;11.35;6.22;;;35.30;55.50;;;;;;20955525;28;19958;-58
2022/07/22 12:17:09;;;;;;;7.88;7.10;;;35.40;54.10;;;;;;20970214;28;20075;-58
2022/07/22 12:27:19;;;;;;;10.20;7.05;;;35.40;54.60;;;;;;20969291;28;20062;-58
2022/07/22 12:37:24;;;;;;;8.98;8.05;;;35.00;55.70;;;;;;20968313;28;20032;-57
2022/07/22 12:47:48;;;;;;;8.35;7.05;;;34.70;56.00;;;;;;20968135;28;20066;-58
2022/07/22 12:57:51;;;;;;;7.90;6.00;;;34.70;55.20;;;;;;20996022;28;20113;-57
2022/07/22 13:07:54;;;;;;;9.25;6.72;;;34.10;55.70;;;;;;21049918;28;20028;-58
2022/07/22 13:17:56;;;;;;;8.95;6.55;;;34.30;55.50;;;;;;21043481;28;20036;-58
2022/07/22 13:27:59;;;;;;;8.60;6.68;;;34.50;55.80;;;;;;21049651;28;20032;-58
2022/07/22 13:38:02;;;;;;;9.18;7.78;;;34.80;54.80;;;;;;21069519;28;20719;-58
2022/07/22 13:48:05;;;;;;;8.20;7.40;;;34.90;54.30;;;;;;21065884;28;20549;-57
2022/07/22 13:58:07;;;;;;;9.57;7.35;;;34.90;54.10;;;;;;21034994;28;20028;-57
2022/07/22 14:08:10;;;;;;;9.77;8.05;;;34.30;55.30;;;;;;20980770;28;20089;-57
2022/07/22 14:18:12;;;;;;;8.15;7.35;;;34.30;55.10;;;;;;20979489;28;20173;-58
2022/07/22 14:28:14;;;;;;;10.65;9.55;;;34.80;55.10;;;;;;20980084;28;20420;-57
2022/07/22 14:38:17;;;;;;;9.05;8.25;;;34.90;55.60;;;;;;20978391;28;20369;-58
2022/07/22 14:48:20;;;;;;;10.07;7.82;;;34.80;54.60;;;;;;20978442;28;20477;-57
2022/07/22 14:58:23;;;;;;;11.52;8.65;;;35.00;53.40;;;;;;21010263;28;20036;-57
2022/07/22 15:08:25;;;;;;;9.02;8.00;;;35.10;53.90;;;;;;21059419;28;20020;-58
2022/07/22 15:18:27;;;;;;;9.30;8.48;;;35.40;54.20;;;;;;21058348;28;20085;-57
2022/07/22 15:28:30;;;;;;;8.80;8.10;;;35.90;52.80;;;;;;21058133;28;20093;-58
2022/07/22 15:38:33;;;;;;;8.30;7.50;;;36.10;52.80;;;;;;21057443;28;20476;-58
2022/07/22 15:48:39;;;;;;;8.15;7.40;;;35.90;53.10;;;;;;21056951;28;20040;-58
2022/07/22 16:09:03;;;;;;;8.07;7.07;;;35.30;53.40;;;;;;20971639;28;20459;-58
2022/07/22 16:19:06;;;;;;;8.40;7.32;;;34.30;54.30;;;;;;20953999;28;20118;-57
2022/07/22 16:29:09;;;;;;;7.93;6.25;;;32.10;56.50;;;;;;20953318;28;20066;-57
2022/07/22 16:39:12;;;;;;;7.13;5.65;;;30.20;59.30;;;;;;20968345;28;20057;-56
2022/07/22 16:49:15;;;;;;;7.88;5.78;;;29.20;61.30;;;;;;20968387;28;20032;-58
2022/07/22 16:59:17;;;;;;;10.07;6.47;;;28.20;63.20;;;;;;21005999;28;20385;-58
2022/07/22 17:09:20;;;;;;;8.00;6.10;;;26.80;65.60;;;;;;21050451;28;20485;-57
2022/07/22 17:19:22;;;;;;;8.60;6.03;;;25.80;67.30;;;;;;21050214;28;20052;-57
2022/07/22 17:29:24;;;;;;;9.85;6.65;;;25.10;69.80;;;;;;21050251;28;20113;-57
2022/07/22 17:39:27;;;;;;;11.15;6.80;;;24.40;70.80;;;;;;21049295;28;20311;-57
2022/07/22 17:49:30;;;;;;;10.13;7.82;;;23.90;73.20;;;;;;21065878;28;20066;-57
2022/07/22 17:59:32;;;;;;;10.27;8.15;;;23.50;74.60;;;;;;21005967;28;20036;-57
2022/07/22 18:09:35;;;;;;;13.38;8.10;;;23.20;75.10;;;;;;20964954;28;20059;-57
2022/07/22 18:19:37;;;;;;;11.90;7.65;;;23.00;74.40;;;;;;20964746;28;20066;-58
2022/07/22 18:29:39;;;;;;;8.38;7.03;;;22.60;75.80;;;;;;20976277;28;20037;-57
2022/07/22 18:39:41;;;;;;;14.90;9.70;;;22.20;75.60;;;;;;20978297;28;20481;-56
2022/07/22 18:49:44;;;;;;;9.50;7.15;;;21.70;77.10;;;;;;20994238;28;20062;-57
2022/07/22 18:59:48;;;;;;;9.65;8.43;;;21.40;80.00;;;;;;21038394;28;20799;-57
2022/07/22 19:09:51;;;;;;;18.17;8.82;;;21.40;81.90;;;;;;21059423;28;20093;-57
2022/07/22 19:19:56;;;;;;;10.70;7.47;;;21.20;83.20;;;;;;21059180;28;20056;-60
2022/07/22 19:29:59;;;;;;;8.52;6.25;;;21.00;84.10;;;;;;21057430;28;20036;-57
2022/07/22 19:40:01;;;;;;;9.27;6.22;;;21.00;85.20;;;;;;21055847;28;20112;-58
2022/07/22 19:50:06;;;;;;;9.57;6.63;;;21.00;86.10;;;;;;21056190;28;20036;-57
2022/07/22 20:00:09;;;;;;;9.23;6.38;;;21.00;86.20;;;;;;21008856;28;20078;-57
2022/07/22 20:10:15;;;;;;;7.13;6.18;;;20.90;86.60;;;;;;20972492;28;20048;-57
2022/07/22 20:20:18;;;;;;;10.20;7.03;;;20.70;87.60;;;;;;20970687;28;20044;-57
2022/07/22 20:30:20;;;;;;;9.27;7.18;;;20.60;89.10;;;;;;20970156;28;20044;-57
2022/07/22 20:40:23;;;;;;;10.73;7.55;;;20.40;90.10;;;;;;20965289;28;20489;-58
2022/07/22 20:50:25;;;;;;;10.10;7.03;;;20.40;90.00;;;;;;20966713;28;20040;-61
2022/07/22 21:00:28;;;;;;;12.75;6.75;;;20.40;89.90;;;;;;21017988;28;20086;-57
2022/07/22 21:10:31;;;;;;;11.85;6.78;;;20.60;89.80;;;;;;21050756;28;20044;-57
2022/07/22 21:20:34;;;;;;;9.27;6.93;;;20.60;90.10;;;;;;21049805;28;20094;-57
2022/07/22 21:30:36;;;;;;;11.98;7.82;;;20.50;90.20;;;;;;21049976;28;20533;-58
2022/07/22 21:40:39;;;;;;;8.65;6.50;;;20.50;90.40;;;;;;21049554;28;20028;-58
2022/07/22 21:50:43;;;;;;;10.40;7.03;;;20.30;90.70;;;;;;21048965;28;20040;-58
2022/07/22 22:00:45;;;;;;;9.65;7.28;;;20.10;90.80;;;;;;21002151;28;20032;-57
2022/07/22 22:10:48;;;;;;;8.95;7.63;;;20.20;90.90;;;;;;20980152;28;20048;-57
2022/07/22 22:20:51;;;;;;;11.98;7.45;;;20.00;91.50;;;;;;20996661;28;20045;-57
2022/07/22 22:30:54;;;;;;;11.15;7.15;;;19.80;91.70;;;;;;20978398;28;20315;-57
2022/07/22 22:40:58;;;;;;;8.93;6.53;;;19.40;91.90;;;;;;20978114;28;20090;-57
2022/07/22 22:51:00;;;;;;;8.15;6.68;;;19.20;91.90;;;;;;20977490;28;20386;-57
2022/07/22 23:01:04;;;;;;;9.20;6.40;;;19.00;91.90;;;;;;21049164;28;20036;-57
2022/07/22 23:11:06;;;;;;;12.65;6.55;;;18.80;91.80;;;;;;21058599;28;20048;-57
2022/07/22 23:21:10;;;;;;;8.82;6.65;;;18.70;91.60;;;;;;21058703;28;20069;-57
2022/07/22 23:31:12;;;;;;;9.65;6.72;;;18.70;91.60;;;;;;21058518;28;20443;-57
2022/07/22 23:41:15;;;;;;;12.15;6.70;;;18.60;91.80;;;;;;21057211;28;20028;-57
2022/07/22 23:51:17;;;;;;;10.07;6.32;;;18.50;91.60;;;;;;21056408;28;20514;-57
